Time;durP1;ratioP1;P1;durP2;ratioP2;P2;SDS_P1;SDS_P2;PMS_P1;PMS_P2;Temp;Humidity;BMP_temperature;BMP_pressure;BME280_temperature;BME280_humidity;BME280_pressure;Samples;Min_cycle;Max_cycle;Signal;HPM_P1;HPM_P2
2023/07/02 00:01:58;;;;;;;1.05;0.95;;;;;;;17.60;72.17;100213.41;5232553;28;20402;-80
2023/07/02 00:04:49;;;;;;;3.03;1.88;;;;;;;17.57;71.81;100206.47;5212827;28;20286;-79
2023/07/02 00:07:40;;;;;;;0.75;0.68;;;;;;;17.68;71.21;100212.91;5229826;28;20036;-80
2023/07/02 00:10:30;;;;;;;0.50;0.50;;;;;;;17.64;70.91;100206.09;5209201;28;20036;-79
2023/07/02 00:13:21;;;;;;;0.60;0.52;;;;;;;17.44;71.44;100209.06;5239545;28;20051;-79
2023/07/02 00:16:12;;;;;;;0.52;0.45;;;;;;;17.48;71.36;100208.88;5210247;28;20067;-79
2023/07/02 00:19:03;;;;;;;0.47;0.45;;;;;;;17.49;71.26;100208.78;5226853;28;20035;-79
2023/07/02 00:21:55;;;;;;;0.77;0.77;;;;;;;17.41;71.15;100208.41;5205579;28;20042;-79
2023/07/02 00:24:46;;;;;;;1.08;0.80;;;;;;;17.37;70.81;100205.09;5203329;28;20056;-79
2023/07/02 00:27:38;;;;;;;0.50;0.50;;;;;;;17.27;70.96;100207.50;5208572;28;20471;-79
2023/07/02 00:30:29;;;;;;;1.38;0.85;;;;;;;17.34;70.68;100210.63;5216520;28;20036;-79
2023/07/02 00:33:19;;;;;;;0.40;0.40;;;;;;;17.34;70.51;100213.28;5208382;28;20078;-79
2023/07/02 00:36:14;;;;;;;3.08;0.70;;;;;;;17.43;69.89;100210.03;5206932;28;20021;-79
2023/07/02 00:39:07;;;;;;;0.60;0.60;;;;;;;17.24;70.02;100212.97;5229011;28;20106;-79
2023/07/02 00:42:02;;;;;;;0.30;0.30;;;;;;;17.23;70.01;100218.41;5208161;28;20491;-79
2023/07/02 00:44:56;;;;;;;1.48;0.98;;;;;;;17.14;70.09;100217.19;5205461;28;20041;-79
2023/07/02 00:47:48;;;;;;;1.35;1.25;;;;;;;17.31;69.50;100211.66;5201552;28;20068;-79
2023/07/02 00:50:40;;;;;;;0.70;0.70;;;;;;;17.14;70.01;100204.78;5239756;28;20502;-79
2023/07/02 00:53:32;;;;;;;0.70;0.70;;;;;;;17.25;69.65;100201.44;5206912;28;20040;-79
2023/07/02 00:56:25;;;;;;;1.58;0.60;;;;;;;17.22;69.61;100208.75;5197327;28;20025;-79
2023/07/02 00:59:16;;;;;;;1.02;0.75;;;;;;;17.14;69.50;100209.25;5221113;28;20040;-79
2023/07/02 01:02:07;;;;;;;1.63;0.80;;;;;;;16.99;69.82;100211.03;5211655;28;20047;-78
2023/07/02 01:04:59;;;;;;;0.50;0.50;;;;;;;17.09;69.87;100203.34;5222868;28;20585;-78
2023/07/02 01:07:50;;;;;;;1.30;1.20;;;;;;;17.03;69.68;100201.94;5204116;28;20043;-78
2023/07/02 01:10:42;;;;;;;2.35;1.63;;;;;;;17.06;69.30;100196.44;5222382;28;20036;-78
2023/07/02 01:13:33;;;;;;;1.40;1.30;;;;;;;17.03;69.59;100190.50;5208173;28;20040;-78
2023/07/02 01:16:24;;;;;;;0.65;0.65;;;;;;;16.98;69.65;100204.03;5223409;28;20058;-78
2023/07/02 01:19:22;;;;;;;11.77;1.15;;;;;;;16.99;69.56;100208.38;5223143;28;20035;-78
2023/07/02 01:22:13;;;;;;;2.25;1.52;;;;;;;16.94;69.47;100197.22;5238385;28;20064;-78
2023/07/02 01:25:04;;;;;;;2.28;1.00;;;;;;;16.84;69.90;100202.19;5208723;28;20025;-78
2023/07/02 01:27:56;;;;;;;1.67;1.58;;;;;;;16.77;70.08;100198.22;5208868;28;20037;-78
2023/07/02 01:30:47;;;;;;;3.35;1.60;;;;;;;16.91;69.33;100195.56;5224984;28;20044;-78
2023/07/02 01:33:38;;;;;;;4.97;2.30;;;;;;;16.89;69.88;100199.25;5219651;28;20933;-78
2023/07/02 01:36:29;;;;;;;15.50;2.35;;;;;;;16.75;69.78;100197.47;5204110;28;20550;-78
2023/07/02 01:39:19;;;;;;;3.30;0.88;;;;;;;16.67;70.32;100201.44;5215553;28;20067;-78
2023/07/02 01:42:11;;;;;;;2.00;1.90;;;;;;;16.64;70.08;100201.63;5207843;28;20028;-78
2023/07/02 01:45:02;;;;;;;0.77;0.63;;;;;;;16.74;69.60;100199.28;5208001;28;20043;-78
2023/07/02 01:47:56;;;;;;;1.52;1.42;;;;;;;16.77;69.75;100195.56;5206017;28;20051;-78
2023/07/02 01:50:47;;;;;;;;;;;;;;;16.78;69.67;100202.59;5207365;28;20043;-78
2023/07/02 01:53:37;;;;;;;2.10;1.95;;;;;;;16.63;70.11;100205.22;5238175;28;20607;-78
2023/07/02 01:56:28;;;;;;;0.57;0.57;;;;;;;16.69;69.71;100206.66;5238098;28;20086;-78
2023/07/02 01:59:19;;;;;;;1.00;1.00;;;;;;;16.74;70.07;100201.91;5237646;28;20041;-78
2023/07/02 02:02:10;;;;;;;1.75;0.60;;;;;;;16.61;70.21;100207.13;5209241;28;20031;-78
2023/07/02 02:05:01;;;;;;;7.07;1.92;;;;;;;16.63;70.29;100202.59;5207406;28;20866;-78
2023/07/02 02:07:51;;;;;;;0.88;0.88;;;;;;;16.55;70.29;100212.78;5223041;28;20064;-78
2023/07/02 02:10:42;;;;;;;21.85;1.77;;;;;;;16.47;70.65;100209.75;5220231;28;20059;-78
2023/07/02 02:13:33;;;;;;;1.45;1.35;;;;;;;16.49;70.65;100207.84;5219442;28;20059;-78
2023/07/02 02:16:24;;;;;;;2.55;2.35;;;;;;;16.51;70.43;100206.81;5205425;28;20028;-78
2023/07/02 02:19:15;;;;;;;2.53;2.35;;;;;;;16.38;70.79;100199.72;5237180;28;20071;-78
2023/07/02 02:22:06;;;;;;;2.70;1.88;;;;;;;16.37;71.12;100201.47;5218126;28;20089;-78
2023/07/02 02:24:56;;;;;;;2.28;1.35;;;;;;;16.46;70.57;100214.19;5234333;28;20045;-79
2023/07/02 02:27:47;;;;;;;1.10;1.10;;;;;;;16.45;70.44;100224.88;5240170;28;20484;-78
2023/07/02 02:30:38;;;;;;;2.83;2.50;;;;;;;16.46;70.21;100219.47;5204096;28;20139;-79
2023/07/02 02:33:30;;;;;;;1.67;1.58;;;;;;;16.35;71.27;100217.47;5216373;28;20127;-78
2023/07/02 02:36:20;;;;;;;11.32;3.00;;;;;;;16.36;70.74;100219.19;5218089;28;20024;-78
2023/07/02 02:39:11;;;;;;;4.90;1.45;;;;;;;16.42;70.92;100227.69;5221864;28;20047;-78
2023/07/02 02:42:02;;;;;;;5.85;3.78;;;;;;;16.33;71.59;100229.94;5235785;28;20046;-78
2023/07/02 02:44:53;;;;;;;2.85;1.95;;;;;;;16.32;71.52;100227.38;5202726;28;20044;-78
2023/07/02 02:47:45;;;;;;;6.57;3.53;;;;;;;16.34;71.45;100225.50;5205466;28;20441;-79
2023/07/02 02:50:41;;;;;;;1.25;1.23;;;;;;;16.45;71.03;100232.81;5212770;28;20615;-78
2023/07/02 02:53:31;;;;;;;2.00;1.15;;;;;;;16.40;71.06;100232.25;5220316;28;20032;-78
2023/07/02 02:56:22;;;;;;;3.67;2.63;;;;;;;16.39;71.34;100228.72;5216687;28;20041;-78
2023/07/02 02:59:13;;;;;;;3.05;1.98;;;;;;;16.36;71.71;100229.78;5202115;28;20040;-78
2023/07/02 03:02:04;;;;;;;3.10;2.45;;;;;;;16.21;72.31;100220.94;5204961;28;20051;-79
2023/07/02 03:04:56;;;;;;;5.65;1.83;;;;;;;16.31;71.84;100237.16;5217094;28;20036;-78
2023/07/02 03:07:47;;;;;;;2.92;1.63;;;;;;;16.29;72.03;100232.84;5205011;28;20040;-78
2023/07/02 03:10:38;;;;;;;8.48;1.38;;;;;;;16.30;71.95;100234.56;5206119;28;20495;-78
2023/07/02 03:13:29;;;;;;;7.40;3.63;;;;;;;16.29;72.27;100238.16;5217016;28;20202;-78
2023/07/02 03:16:21;;;;;;;2.55;2.03;;;;;;;16.23;72.22;100239.38;5213631;28;20033;-78
2023/07/02 03:19:14;;;;;;;3.50;2.40;;;;;;;16.24;72.38;100245.53;5203619;28;20037;-78
2023/07/02 03:22:05;;;;;;;2.95;1.65;;;;;;;16.41;72.00;100241.88;5217578;28;20067;-78
2023/07/02 03:24:57;;;;;;;3.00;1.98;;;;;;;16.30;71.99;100239.84;5205754;28;20287;-78
2023/07/02 03:27:47;;;;;;;6.15;1.67;;;;;;;16.30;72.21;100229.28;5235052;28;20101;-78
2023/07/02 03:30:38;;;;;;;3.05;2.35;;;;;;;16.30;72.12;100235.44;5237578;28;20070;-78
2023/07/02 03:33:29;;;;;;;2.92;1.88;;;;;;;16.26;73.00;100252.41;5216160;28;20060;-79
2023/07/02 03:36:20;;;;;;;3.70;1.63;;;;;;;16.33;72.56;100256.41;5223808;28;20025;-78
2023/07/02 03:39:11;;;;;;;7.75;1.63;;;;;;;16.37;72.28;100251.78;5235045;28;20029;-79
2023/07/02 03:42:01;;;;;;;1.10;1.08;;;;;;;16.29;72.93;100259.31;5215938;28;20028;-78
2023/07/02 03:44:52;;;;;;;1.10;1.00;;;;;;;16.37;72.48;100257.09;5202990;28;20545;-78
2023/07/02 03:47:43;;;;;;;4.07;1.80;;;;;;;16.30;72.80;100263.69;5206338;28;20044;-78
2023/07/02 03:50:34;;;;;;;4.13;1.88;;;;;;;16.30;72.84;100259.25;5214570;28;20506;-79
2023/07/02 03:53:24;;;;;;;1.70;1.52;;;;;;;16.30;72.87;100267.19;5205983;28;20040;-78
2023/07/02 03:56:15;;;;;;;3.42;2.10;;;;;;;16.40;72.00;100278.09;5210335;28;20419;-78
2023/07/02 03:59:06;;;;;;;1.85;1.73;;;;;;;16.36;72.37;100274.78;5225325;28;20110;-79
2023/07/02 04:01:57;;;;;;;7.30;2.67;;;;;;;16.38;72.93;100284.44;5214980;28;20048;-79
2023/07/02 04:04:48;;;;;;;2.80;2.58;;;;;;;16.39;72.66;100283.50;5206783;28;20474;-79
2023/07/02 04:07:38;;;;;;;2.53;2.33;;;;;;;16.29;72.91;100288.44;5218635;28;20127;-79
2023/07/02 04:10:29;;;;;;;3.53;2.15;;;;;;;16.39;72.89;100296.72;5210372;28;20147;-79
2023/07/02 04:13:20;;;;;;;4.85;2.55;;;;;;;16.52;71.81;100300.34;5206908;28;20074;-79
2023/07/02 04:16:11;;;;;;;3.35;2.65;;;;;;;16.47;72.29;100299.78;5205702;28;20025;-79
2023/07/02 04:19:02;;;;;;;2.55;2.20;;;;;;;16.56;72.11;100304.53;5222951;28;20226;-79
2023/07/02 04:21:52;;;;;;;4.32;3.15;;;;;;;16.41;72.88;100306.28;5229292;28;20548;-79
2023/07/02 04:24:43;;;;;;;2.13;1.98;;;;;;;16.35;73.13;100307.47;5222237;28;20040;-79
2023/07/02 04:27:34;;;;;;;2.53;2.33;;;;;;;16.39;73.28;100308.16;5238571;28;20383;-79
2023/07/02 04:30:25;;;;;;;3.40;2.20;;;;;;;16.35;73.28;100307.47;5238359;28;20119;-78
2023/07/02 04:33:16;;;;;;;1.67;1.58;;;;;;;16.57;72.52;100311.50;5203661;28;20037;-79
2023/07/02 04:36:07;;;;;;;2.30;2.13;;;;;;;16.41;73.24;100316.00;5219291;28;20032;-79
2023/07/02 04:38:58;;;;;;;2.65;1.98;;;;;;;16.33;73.85;100319.09;5210956;28;20585;-79
2023/07/02 04:41:52;;;;;;;2.67;2.47;;;;;;;16.38;73.39;100322.34;5222020;28;20040;-79
2023/07/02 04:44:43;;;;;;;;;;;;;;;16.44;73.12;100321.13;5212381;28;20032;-79
2023/07/02 04:47:36;;;;;;;3.42;2.75;;;;;;;16.50;73.32;100323.41;5213049;28;20270;-79
2023/07/02 04:50:27;;;;;;;;;;;;;;;16.33;74.05;100324.41;5222462;28;20036;-79
2023/07/02 04:53:18;;;;;;;5.10;3.72;;;;;;;16.44;73.48;100324.66;5224592;28;20422;-78
2023/07/02 04:56:09;;;;;;;6.57;2.42;;;;;;;16.42;74.31;100333.59;5207021;28;20685;-79
2023/07/02 04:58:59;;;;;;;2.78;1.38;;;;;;;16.53;73.12;100336.47;5206812;28;20041;-78
2023/07/02 05:01:50;;;;;;;4.50;2.65;;;;;;;16.52;73.65;100337.44;5206082;28;20036;-79
2023/07/02 05:04:41;;;;;;;7.72;3.22;;;;;;;16.66;72.70;100345.41;5202019;28;20063;-78
2023/07/02 05:07:33;;;;;;;5.70;2.85;;;;;;;16.51;73.52;100348.94;5205191;28;20781;-79
2023/07/02 05:10:23;;;;;;;8.70;3.13;;;;;;;16.49;73.81;100350.84;5222932;28;20037;-79
2023/07/02 05:13:14;;;;;;;5.28;3.38;;;;;;;16.49;73.91;100342.88;5221015;28;20035;-78
2023/07/02 05:16:05;;;;;;;2.67;2.40;;;;;;;16.60;73.54;100356.38;5218853;28;20021;-79
2023/07/02 05:18:56;;;;;;;6.05;3.38;;;;;;;16.55;73.61;100355.78;5223405;28;20052;-79
2023/07/02 05:21:46;;;;;;;3.72;3.10;;;;;;;16.57;74.01;100358.34;5216788;28;20035;-78
2023/07/02 05:24:37;;;;;;;2.10;1.35;;;;;;;16.58;73.74;100358.25;5206702;28;20058;-78
2023/07/02 05:27:28;;;;;;;2.70;1.85;;;;;;;16.52;74.29;100361.25;5207099;28;20032;-78
2023/07/02 05:30:19;;;;;;;2.33;2.05;;;;;;;16.59;74.12;100367.91;5220226;28;20592;-78
2023/07/02 05:33:10;;;;;;;1.30;1.30;;;;;;;16.63;73.83;100374.75;5216669;28;20519;-79
2023/07/02 05:36:01;;;;;;;1.83;1.73;;;;;;;16.75;73.37;100367.00;5222666;28;20742;-79
2023/07/02 05:38:51;;;;;;;4.30;2.03;;;;;;;16.78;73.21;100367.69;5206106;28;20075;-78
2023/07/02 05:41:42;;;;;;;2.47;2.20;;;;;;;16.81;72.89;100366.66;5221571;28;20024;-78
2023/07/02 05:44:33;;;;;;;2.78;2.47;;;;;;;16.86;73.22;100364.59;5223463;28;20571;-78
2023/07/02 05:47:24;;;;;;;1.70;1.55;;;;;;;16.80;73.44;100370.25;5207006;28;20036;-78
2023/07/02 05:50:15;;;;;;;5.78;3.45;;;;;;;16.84;73.31;100377.06;5211774;28;20043;-78
2023/07/02 05:53:06;;;;;;;3.90;2.55;;;;;;;16.84;72.87;100371.75;5236305;28;20024;-77
2023/07/02 05:55:56;;;;;;;1.80;1.58;;;;;;;16.94;73.25;100383.56;5223448;28;20043;-77
2023/07/02 05:58:49;;;;;;;2.70;2.45;;;;;;;16.92;73.16;100372.16;5238364;28;20410;-77
2023/07/02 06:01:39;;;;;;;2.92;2.20;;;;;;;17.04;72.50;100383.88;5238281;28;20097;-76
2023/07/02 06:04:30;;;;;;;11.25;3.13;;;;;;;17.08;72.37;100384.53;5226919;28;20434;-76
2023/07/02 06:07:21;;;;;;;3.70;2.67;;;;;;;17.12;72.20;100394.03;5217289;28;20021;-76
2023/07/02 06:10:12;;;;;;;4.82;2.15;;;;;;;17.12;72.62;100396.66;5225148;28;20823;-75
2023/07/02 06:13:03;;;;;;;3.28;2.80;;;;;;;17.10;73.05;100394.13;5208245;28;20107;-76
2023/07/02 06:15:54;;;;;;;5.63;4.03;;;;;;;17.14;72.63;100397.44;5223670;28;20445;-76
2023/07/02 06:18:44;;;;;;;5.38;2.00;;;;;;;17.16;72.46;100408.78;5217993;28;20041;-75
2023/07/02 06:21:36;;;;;;;9.23;3.45;;;;;;;17.13;72.44;100399.22;5218047;28;20378;-76
2023/07/02 06:24:27;;;;;;;8.50;2.45;;;;;;;17.30;71.53;100400.88;5214933;28;20049;-76
2023/07/02 06:27:18;;;;;;;3.50;2.35;;;;;;;17.38;70.69;100397.75;5220788;28;20025;-76
2023/07/02 06:30:08;;;;;;;13.00;2.20;;;;;;;17.25;70.93;100410.88;5221377;28;20044;-75
2023/07/02 06:32:59;;;;;;;9.40;3.55;;;;;;;17.28;70.96;100413.38;5222364;28;20033;-77
2023/07/02 06:35:50;;;;;;;3.45;2.53;;;;;;;17.31;71.51;100413.16;5214286;28;20052;-76
2023/07/02 06:38:41;;;;;;;2.78;1.95;;;;;;;17.38;69.62;100418.94;5207478;28;20146;-76
2023/07/02 06:41:32;;;;;;;1.73;1.63;;;;;;;17.37;68.43;100411.94;5237401;28;20777;-75
2023/07/02 06:44:22;;;;;;;1.55;1.45;;;;;;;17.33;67.39;100426.34;5204271;28;20045;-76
2023/07/02 06:47:13;;;;;;;2.30;2.10;;;;;;;17.39;68.14;100425.13;5223518;28;20025;-75
2023/07/02 06:50:05;;;;;;;2.83;2.55;;;;;;;17.48;67.35;100424.53;5216371;28;20070;-76
2023/07/02 06:52:55;;;;;;;4.82;3.13;;;;;;;17.44;66.92;100428.34;5233687;28;20031;-76
2023/07/02 06:55:46;;;;;;;1.63;1.52;;;;;;;17.44;67.21;100423.03;5234653;28;20042;-76
2023/07/02 06:58:39;;;;;;;1.98;1.73;;;;;;;17.48;66.45;100429.00;5221247;28;20083;-75
2023/07/02 07:01:29;;;;;;;2.63;1.98;;;;;;;17.58;66.20;100430.16;5225540;28;20182;-76
2023/07/02 07:04:20;;;;;;;3.38;2.22;;;;;;;17.56;66.33;100429.41;5205285;28;20037;-75
2023/07/02 07:07:11;;;;;;;1.98;1.83;;;;;;;17.61;65.38;100432.59;5226537;28;20052;-77
2023/07/02 07:10:03;;;;;;;2.13;1.92;;;;;;;17.63;65.17;100433.38;5214476;28;20041;-77
2023/07/02 07:12:54;;;;;;;1.75;1.27;;;;;;;17.75;65.88;100434.41;5205907;28;20025;-78
2023/07/02 07:15:45;;;;;;;4.43;1.60;;;;;;;17.80;66.12;100434.13;5216619;28;20033;-77
2023/07/02 07:18:36;;;;;;;2.90;2.17;;;;;;;17.94;64.92;100445.59;5222571;28;20028;-78
2023/07/02 07:21:26;;;;;;;2.25;1.80;;;;;;;17.83;64.13;100442.75;5202621;28;20112;-78
2023/07/02 07:24:17;;;;;;;2.00;1.40;;;;;;;17.94;64.89;100440.28;5222891;28;20406;-78
2023/07/02 07:27:08;;;;;;;3.58;2.67;;;;;;;17.99;64.80;100440.03;5212791;28;20032;-78
2023/07/02 07:29:59;;;;;;;3.30;1.95;;;;;;;18.06;64.47;100444.00;5233333;28;20094;-79
2023/07/02 07:32:50;;;;;;;6.38;2.65;;;;;;;18.11;64.71;100450.81;5239868;28;20743;-79
2023/07/02 07:35:41;;;;;;;12.30;3.60;;;;;;;18.19;65.06;100446.75;5209622;28;20041;-79
2023/07/02 07:38:32;;;;;;;2.42;2.22;;;;;;;18.13;64.29;100452.44;5210958;28;20425;-79
2023/07/02 07:41:23;;;;;;;4.32;2.63;;;;;;;18.20;62.43;100450.25;5224641;28;20452;-78
2023/07/02 07:44:14;;;;;;;4.82;2.05;;;;;;;18.28;62.18;100447.94;5207052;28;20037;-79
2023/07/02 07:47:04;;;;;;;1.73;1.02;;;;;;;18.20;61.88;100461.72;5224444;28;20024;-79
2023/07/02 07:49:55;;;;;;;2.08;1.77;;;;;;;18.30;62.84;100463.81;5225666;28;20037;-79
2023/07/02 07:52:47;;;;;;;2.30;1.92;;;;;;;18.30;62.19;100461.16;5208751;28;20029;-78
2023/07/02 07:55:38;;;;;;;1.42;1.33;;;;;;;18.31;60.33;100463.69;5228374;28;20044;-79
2023/07/02 07:58:29;;;;;;;2.20;1.92;;;;;;;18.33;58.65;100464.47;5239219;28;20742;-79
2023/07/02 08:01:20;;;;;;;4.47;2.22;;;;;;;18.42;59.66;100465.66;5231318;28;20120;-78
2023/07/02 08:04:11;;;;;;;1.50;1.40;;;;;;;18.43;59.36;100471.84;5223840;28;20092;-79
2023/07/02 08:07:04;;;;;;;8.05;2.22;;;;;;;18.44;58.74;100476.19;5215869;28;20024;-79
2023/07/02 08:09:55;;;;;;;3.50;2.65;;;;;;;18.55;59.29;100469.22;5229942;28;20041;-78
2023/07/02 08:12:47;;;;;;;3.28;1.60;;;;;;;18.62;58.95;100471.50;5211676;28;20066;-78
2023/07/02 08:15:38;;;;;;;6.47;3.85;;;;;;;18.69;59.34;100470.16;5228366;28;20707;-78
2023/07/02 08:18:29;;;;;;;2.92;2.42;;;;;;;18.68;58.04;100476.41;5216430;28;20047;-77
2023/07/02 08:21:19;;;;;;;3.38;2.70;;;;;;;18.77;58.29;100474.94;5224609;28;20033;-77
2023/07/02 08:24:10;;;;;;;2.30;1.95;;;;;;;18.80;58.49;100472.94;5218223;28;20053;-77
2023/07/02 08:27:02;;;;;;;1.80;1.38;;;;;;;18.81;56.98;100479.97;5224018;28;20666;-78
2023/07/02 08:29:53;;;;;;;3.05;2.75;;;;;;;18.84;56.70;100490.41;5208296;28;20051;-78
2023/07/02 08:32:46;;;;;;;3.13;1.92;;;;;;;18.81;57.42;100482.63;5210539;28;20098;-78
2023/07/02 08:35:36;;;;;;;1.60;1.50;;;;;;;18.91;57.34;100482.00;5218032;28;20033;-78
2023/07/02 08:38:27;;;;;;;3.20;1.40;;;;;;;18.90;57.38;100482.97;5210346;28;20514;-78
2023/07/02 08:41:21;;;;;;;2.47;2.28;;;;;;;19.01;57.87;100485.81;5233683;28;20028;-78
2023/07/02 08:44:15;;;;;;;2.60;2.10;;;;;;;18.99;58.50;100479.72;5207656;28;20032;-77
2023/07/02 08:47:07;;;;;;;1.33;1.23;;;;;;;18.84;57.13;100490.41;5223444;28;20530;-77
2023/07/02 08:49:57;;;;;;;1.77;1.67;;;;;;;18.95;57.73;100491.53;5208394;28;20555;-77
2023/07/02 08:52:48;;;;;;;1.75;1.63;;;;;;;18.95;58.18;100491.53;5237575;28;20151;-77
2023/07/02 08:55:40;;;;;;;9.40;1.55;;;;;;;18.84;58.12;100492.22;5223847;28;20037;-77
2023/07/02 08:58:31;;;;;;;1.20;1.10;;;;;;;19.02;57.77;100492.84;5223473;28;20056;-77
2023/07/02 09:01:22;;;;;;;4.35;1.85;;;;;;;19.01;57.93;100493.78;5219429;28;20031;-78
2023/07/02 09:04:20;;;;;;;2.03;1.83;;;;;;;19.04;58.16;100490.94;5223116;28;20040;-77
2023/07/02 09:07:11;;;;;;;3.40;2.55;;;;;;;19.09;58.47;100499.44;5204228;28;20020;-77
2023/07/02 09:10:02;;;;;;;3.70;2.80;;;;;;;18.95;57.49;100507.50;5223283;28;20141;-77
2023/07/02 09:13:04;;;;;;;6.00;2.45;;;;;;;19.05;57.67;100497.09;5209897;28;20513;-76
2023/07/02 09:15:55;;;;;;;5.63;3.20;;;;;;;19.11;57.89;100492.22;5223481;28;20098;-77
2023/07/02 09:18:58;;;;;;;1.25;1.15;;;;;;;19.14;57.29;100491.16;5234027;28;20449;-78
2023/07/02 09:21:49;;;;;;;3.80;2.75;;;;;;;19.01;57.18;100499.09;5214270;28;20044;-79
2023/07/02 09:24:40;;;;;;;3.78;2.83;;;;;;;19.05;57.33;100503.25;5223297;28;20162;-78
2023/07/02 09:27:35;;;;;;;1.23;1.15;;;;;;;19.01;56.97;100512.41;5224720;28;20044;-78
2023/07/02 09:30:26;;;;;;;1.63;1.52;;;;;;;19.09;57.16;100518.06;5205814;28;20044;-79
2023/07/02 09:33:17;;;;;;;2.08;1.98;;;;;;;19.13;58.17;100506.25;5226429;28;20111;-78
2023/07/02 09:36:08;;;;;;;2.97;2.17;;;;;;;19.15;58.08;100504.34;5223087;28;20711;-79
2023/07/02 09:39:00;;;;;;;4.25;1.67;;;;;;;18.99;57.68;100499.22;5208684;28;20105;-79
2023/07/02 09:41:51;;;;;;;2.50;2.08;;;;;;;19.19;57.62;100494.34;5226247;28;20521;-78
2023/07/02 09:44:42;;;;;;;2.05;1.85;;;;;;;19.26;58.06;100500.13;5201431;28;20074;-78
2023/07/02 09:47:38;;;;;;;7.22;3.33;;;;;;;19.33;58.89;100491.63;5223508;28;20490;-78
2023/07/02 09:50:30;;;;;;;14.45;4.05;;;;;;;19.50;59.72;100493.13;5214615;28;20799;-78
2023/07/02 09:53:21;;;;;;;1.27;1.17;;;;;;;19.46;55.55;100488.97;5220187;28;20441;-78
2023/07/02 09:56:12;;;;;;;1.40;1.08;;;;;;;19.53;56.07;100486.75;5206564;28;20028;-78
2023/07/02 09:59:02;;;;;;;1.33;1.25;;;;;;;19.56;54.97;100502.50;5208113;28;20032;-78
2023/07/02 10:01:54;;;;;;;2.10;1.98;;;;;;;19.64;55.42;100499.31;5207461;28;20522;-78
2023/07/02 10:04:46;;;;;;;2.22;1.83;;;;;;;19.63;56.88;100508.25;5227474;28;20091;-78
2023/07/02 10:07:37;;;;;;;4.83;2.63;;;;;;;19.39;57.54;100503.66;5222322;28;20059;-78
2023/07/02 10:10:29;;;;;;;2.53;2.20;;;;;;;19.60;56.63;100516.47;5210668;28;20170;-78
2023/07/02 10:13:27;;;;;;;1.80;1.70;;;;;;;19.58;55.40;100515.72;5219874;28;20032;-78
2023/07/02 10:16:20;;;;;;;2.33;1.95;;;;;;;19.70;56.02;100512.22;5239427;28;20083;-78
2023/07/02 10:19:12;;;;;;;1.83;1.42;;;;;;;19.74;57.27;100519.03;5223632;28;20525;-78
2023/07/02 10:22:04;;;;;;;4.78;2.25;;;;;;;19.74;56.18;100505.72;5205436;28;20035;-78
2023/07/02 10:24:59;;;;;;;4.28;2.33;;;;;;;19.84;56.35;100515.72;5203132;28;20036;-79
2023/07/02 10:27:50;;;;;;;2.20;2.00;;;;;;;19.71;57.09;100515.72;5242321;28;20039;-78
2023/07/02 10:30:42;;;;;;;1.98;1.88;;;;;;;19.76;57.77;100518.91;5217688;28;20747;-78
2023/07/02 10:33:32;;;;;;;1.35;1.27;;;;;;;19.56;56.81;100528.25;5217183;28;20051;-78
2023/07/02 10:36:25;;;;;;;2.22;2.13;;;;;;;19.10;53.86;100527.75;5218228;28;20037;-77
2023/07/02 10:39:15;;;;;;;1.90;1.65;;;;;;;19.30;53.88;100526.41;5208289;28;20055;-77
2023/07/02 10:42:07;;;;;;;9.23;2.85;;;;;;;19.37;53.38;100529.53;5220548;28;20028;-77
2023/07/02 10:44:58;;;;;;;2.00;1.90;;;;;;;19.38;54.22;100525.88;5220706;28;20529;-77
2023/07/02 10:47:49;;;;;;;1.55;1.40;;;;;;;19.41;54.59;100519.53;5223782;28;20040;-77
2023/07/02 10:50:40;;;;;;;1.35;1.02;;;;;;;19.62;54.10;100517.22;5208561;28;20041;-77
2023/07/02 10:53:31;;;;;;;6.25;1.83;;;;;;;19.69;54.41;100525.63;5223224;28;20037;-77
2023/07/02 10:56:22;;;;;;;1.85;1.50;;;;;;;19.64;54.58;100525.94;5211445;28;20065;-77
2023/07/02 10:59:23;;;;;;;1.58;1.48;;;;;;;19.33;54.28;100538.66;5229089;28;20047;-77
2023/07/02 11:02:15;;;;;;;2.10;1.98;;;;;;;19.33;55.10;100543.97;5225671;28;20028;-77
2023/07/02 11:05:11;;;;;;;2.17;1.65;;;;;;;19.44;54.06;100537.94;5209501;28;20068;-77
2023/07/02 11:08:08;;;;;;;1.00;1.00;;;;;;;19.28;52.08;100535.47;5218983;28;20167;-77
2023/07/02 11:11:07;;;;;;;4.18;1.88;;;;;;;19.41;52.63;100536.31;5203935;28;20086;-77
2023/07/02 11:13:58;;;;;;;2.55;1.55;;;;;;;19.45;51.73;100532.53;5223706;28;20067;-78
2023/07/02 11:16:54;;;;;;;0.90;0.82;;;;;;;19.50;50.82;100530.38;5210844;28;20024;-78
2023/07/02 11:19:50;;;;;;;1.50;1.40;;;;;;;19.55;50.44;100534.53;5210676;28;20024;-78
2023/07/02 11:22:41;;;;;;;1.55;1.45;;;;;;;19.60;50.44;100533.28;5220815;28;20059;-78
2023/07/02 11:25:32;;;;;;;2.85;1.75;;;;;;;19.72;49.88;100525.41;5241678;28;20067;-79
2023/07/02 11:28:23;;;;;;;1.35;1.25;;;;;;;19.75;48.45;100517.22;5239733;28;20040;-77
2023/07/02 11:31:14;;;;;;;2.33;1.67;;;;;;;19.87;48.20;100515.56;5222374;28;20438;-78
2023/07/02 11:34:18;;;;;;;8.00;2.17;;;;;;;20.02;46.61;100524.25;5223285;28;20052;-77
2023/07/02 11:37:09;;;;;;;6.05;1.88;;;;;;;20.12;47.10;100526.16;5220089;28;20043;-76
2023/07/02 11:40:00;;;;;;;2.72;1.90;;;;;;;20.19;44.71;100515.09;5221672;28;20044;-77
2023/07/02 11:42:51;;;;;;;1.45;1.35;;;;;;;20.21;43.09;100518.47;5238796;28;20028;-77
2023/07/02 11:45:43;;;;;;;1.15;1.15;;;;;;;20.43;43.41;100521.34;5207335;28;20037;-77
2023/07/02 11:48:33;;;;;;;2.05;1.45;;;;;;;20.57;43.81;100516.81;5209820;28;20060;-78
2023/07/02 11:51:24;;;;;;;0.93;0.93;;;;;;;20.68;44.25;100516.91;5240248;28;20028;-77
2023/07/02 11:54:17;;;;;;;1.00;0.93;;;;;;;20.82;42.88;100513.25;5221268;28;20044;-78
2023/07/02 11:57:08;;;;;;;1.42;1.33;;;;;;;20.92;41.62;100532.06;5224969;28;20021;-77
2023/07/02 12:00:00;;;;;;;2.63;2.17;;;;;;;21.10;42.30;100527.19;5228827;28;20479;-77
2023/07/02 12:02:51;;;;;;;2.60;1.55;;;;;;;21.16;42.41;100528.53;5201758;28;20036;-77
2023/07/02 12:05:42;;;;;;;1.48;1.38;;;;;;;21.18;42.03;100530.13;5209055;28;20076;-77
2023/07/02 12:08:33;;;;;;;1.77;1.20;;;;;;;21.41;41.03;100524.88;5243563;28;20044;-76
2023/07/02 12:11:23;;;;;;;7.80;1.02;;;;;;;21.25;41.35;100521.66;5241531;28;20036;-77
2023/07/02 12:14:14;;;;;;;1.20;0.85;;;;;;;21.27;41.41;100523.28;5221928;28;20037;-77
2023/07/02 12:17:05;;;;;;;1.20;1.15;;;;;;;21.32;41.25;100522.91;5221148;28;20043;-76
2023/07/02 12:19:56;;;;;;;0.70;0.70;;;;;;;21.31;40.08;100519.38;5230560;28;20036;-77
2023/07/02 12:22:47;;;;;;;0.52;0.52;;;;;;;21.32;41.97;100521.09;5223837;28;20037;-76
2023/07/02 12:25:38;;;;;;;0.80;0.80;;;;;;;21.39;40.99;100511.66;5222719;28;20702;-76
2023/07/02 12:28:29;;;;;;;2.83;2.25;;;;;;;21.53;40.55;100520.41;5215676;28;20036;-77
2023/07/02 12:31:20;;;;;;;4.45;1.38;;;;;;;21.64;41.97;100520.47;5208439;28;20032;-77
2023/07/02 12:34:11;;;;;;;1.95;1.08;;;;;;;21.73;40.36;100518.06;5222648;28;20040;-77
2023/07/02 12:37:03;;;;;;;1.13;1.08;;;;;;;21.65;40.37;100527.53;5210377;28;20835;-77
2023/07/02 12:39:54;;;;;;;2.33;1.15;;;;;;;21.74;41.33;100522.44;5208225;28;20117;-77
2023/07/02 12:42:47;;;;;;;1.40;1.15;;;;;;;21.78;41.30;100523.88;5216072;28;20033;-77
2023/07/02 12:45:38;;;;;;;1.13;0.63;;;;;;;21.76;41.09;100524.00;5237188;28;20041;-77
2023/07/02 12:48:28;;;;;;;2.10;1.48;;;;;;;21.81;40.86;100529.00;5223817;28;20668;-77
2023/07/02 12:51:19;;;;;;;4.20;0.93;;;;;;;21.87;42.07;100525.84;5217353;28;20047;-76
2023/07/02 12:54:10;;;;;;;0.90;0.90;;;;;;;21.84;42.59;100526.09;5221891;28;20041;-76
2023/07/02 12:57:01;;;;;;;0.82;0.82;;;;;;;21.85;41.35;100522.47;5208305;28;20453;-76
2023/07/02 12:59:55;;;;;;;0.88;0.88;;;;;;;21.82;41.31;100528.88;5209746;28;20534;-77
2023/07/02 13:02:46;;;;;;;1.67;0.90;;;;;;;21.96;42.42;100529.63;5236006;28;20036;-77
2023/07/02 13:05:37;;;;;;;6.82;0.80;;;;;;;21.98;41.97;100533.88;5216059;28;20029;-79
2023/07/02 13:08:28;;;;;;;2.25;1.95;;;;;;;22.21;42.19;100528.53;5206438;28;20097;-76
2023/07/02 13:11:19;;;;;;;0.82;0.82;;;;;;;22.32;41.99;100535.69;5223369;28;20071;-76
2023/07/02 13:14:10;;;;;;;1.30;1.20;;;;;;;22.16;41.36;100536.06;5222768;28;20066;-77
2023/07/02 13:17:02;;;;;;;2.08;1.70;;;;;;;22.27;41.82;100536.06;5226664;28;20934;-77
2023/07/02 13:19:57;;;;;;;4.15;2.05;;;;;;;22.28;42.70;100542.25;5216741;28;20243;-78